createdAt,value
2019-04-03T00:00:19.373Z,8.17
2019-04-03T00:02:50.335Z,7.10
2019-04-03T00:05:20.990Z,6.37
2019-04-03T00:07:51.767Z,5.57
2019-04-03T00:10:22.549Z,5.53
2019-04-03T00:12:53.218Z,10.03
2019-04-03T00:15:23.915Z,5.57
2019-04-03T00:17:54.557Z,5.63
2019-04-03T00:20:25.188Z,4.73
2019-04-03T00:22:56.375Z,3.90
2019-04-03T00:25:28.543Z,3.50
2019-04-03T00:27:59.251Z,3.00
2019-04-03T00:30:30.233Z,3.00
2019-04-03T00:33:00.995Z,4.40
2019-04-03T00:35:31.805Z,3.47
2019-04-03T00:38:02.940Z,6.10
2019-04-03T00:40:35.282Z,4.23
2019-04-03T00:43:06.042Z,3.67
2019-04-03T00:45:36.857Z,4.97
2019-04-03T00:48:08.589Z,4.23
2019-04-03T00:50:39.299Z,4.00
2019-04-03T00:53:10.053Z,4.73
2019-04-03T00:55:41.921Z,6.70
2019-04-03T00:58:39.387Z,6.57
2019-04-03T01:01:12.241Z,4.27
2019-04-03T01:03:43.712Z,5.43
2019-04-03T01:06:16.442Z,5.13
2019-04-03T01:08:53.884Z,4.87
2019-04-03T01:11:24.614Z,5.17
2019-04-03T01:13:56.697Z,6.30
2019-04-03T01:16:28.822Z,5.10
2019-04-03T01:18:59.938Z,4.97
2019-04-03T01:21:30.745Z,5.13
2019-04-03T01:24:03.117Z,6.47
2019-04-03T01:26:34.209Z,5.67
2019-04-03T01:29:06.271Z,5.50
2019-04-03T01:31:42.983Z,6.13
2019-04-03T01:34:17.195Z,6.83
2019-04-03T01:36:49.443Z,6.23
2019-04-03T01:39:21.114Z,7.63
2019-04-03T01:41:52.520Z,8.40
2019-04-03T01:44:25.317Z,10.40
2019-04-03T01:46:58.092Z,9.57
2019-04-03T01:49:29.033Z,10.63
2019-04-03T01:52:01.575Z,11.80
2019-04-03T01:54:33.683Z,12.00
2019-04-03T01:57:06.669Z,13.60
2019-04-03T01:59:38.179Z,14.87
2019-04-03T02:02:09.143Z,16.30
2019-04-03T02:04:42.985Z,18.00
2019-04-03T02:07:32.915Z,19.00
2019-04-03T02:10:03.710Z,19.77
2019-04-03T02:12:35.881Z,19.23
2019-04-03T02:15:07.583Z,22.03
2019-04-03T02:17:38.804Z,23.33
2019-04-03T02:20:11.376Z,21.13
2019-04-03T02:22:42.131Z,20.40
2019-04-03T02:25:14.177Z,23.70
2019-04-03T02:27:44.850Z,22.30
2019-04-03T02:30:16.804Z,21.60
2019-04-03T02:32:47.618Z,23.07
2019-04-03T02:35:18.350Z,22.00
2019-04-03T02:37:50.555Z,23.97
2019-04-03T02:40:21.552Z,23.87
2019-04-03T02:42:52.419Z,24.87
2019-04-03T02:45:24.254Z,25.40
2019-04-03T02:47:58.684Z,26.13
2019-04-03T02:50:30.502Z,21.87
2019-04-03T02:53:03.036Z,22.13
2019-04-03T02:55:34.563Z,24.77
2019-04-03T02:58:06.413Z,24.70
2019-04-03T03:00:39.328Z,22.90
2019-04-03T03:03:10.486Z,21.67
2019-04-03T03:05:41.494Z,22.07
2019-04-03T03:08:12.534Z,22.53
2019-04-03T03:10:43.649Z,20.57
2019-04-03T03:13:15.104Z,22.77
2019-04-03T03:15:45.800Z,22.57
2019-04-03T03:18:18.223Z,20.47
2019-04-03T03:20:51.873Z,18.70
2019-04-03T03:23:24.294Z,22.30
2019-04-03T03:25:57.298Z,18.77
2019-04-03T03:28:31.644Z,16.67
2019-04-03T03:31:10.639Z,19.07
2019-04-03T03:33:42.825Z,16.17
2019-04-03T03:36:20.771Z,16.40
2019-04-03T03:38:48.920Z,15.53
2019-04-03T03:41:23.252Z,11.37
2019-04-03T03:43:55.701Z,13.00
2019-04-03T03:46:28.891Z,11.93
2019-04-03T03:49:00.869Z,12.60
2019-04-03T03:51:36.004Z,13.33
2019-04-03T03:54:08.034Z,11.67
2019-04-03T03:56:39.386Z,11.67
2019-04-03T03:59:17.688Z,15.07
2019-04-03T04:01:46.856Z,11.27
2019-04-03T04:04:17.873Z,10.33
2019-04-03T04:06:49.677Z,10.43
2019-04-03T04:09:22.392Z,12.27
2019-04-03T04:11:54.453Z,11.47
2019-04-03T04:14:26.853Z,12.13
2019-04-03T04:17:00.344Z,14.47
2019-04-03T04:19:32.639Z,12.60
2019-04-03T04:22:03.919Z,11.97
2019-04-03T04:24:36.827Z,14.80
2019-04-03T04:27:08.687Z,14.97
2019-04-03T04:29:50.101Z,13.57
2019-04-03T04:32:21.084Z,12.00
2019-04-03T04:34:51.896Z,14.97
2019-04-03T04:37:22.600Z,15.73
2019-04-03T04:40:03.845Z,14.77
2019-04-03T04:42:35.324Z,11.03
2019-04-03T04:45:06.857Z,11.63
2019-04-03T04:47:37.665Z,14.40
2019-04-03T04:50:08.717Z,13.40
2019-04-03T04:52:39.400Z,14.00
2019-04-03T04:55:11.951Z,13.77
2019-04-03T04:57:42.683Z,12.40
2019-04-03T05:00:13.765Z,11.70
2019-04-03T05:02:51.131Z,13.50
2019-04-03T05:05:22.684Z,12.47
2019-04-03T05:07:54.264Z,12.47
2019-04-03T05:10:26.070Z,14.93
2019-04-03T05:12:57.185Z,14.63
2019-04-03T05:15:27.918Z,13.90
2019-04-03T05:17:59.121Z,14.33
2019-04-03T05:20:29.825Z,14.27
2019-04-03T05:23:00.557Z,16.70
2019-04-03T05:25:37.965Z,18.63
2019-04-03T05:28:08.762Z,16.10
2019-04-03T05:30:40.312Z,17.60
2019-04-03T05:33:11.831Z,18.77
2019-04-03T05:35:45.307Z,22.87
2019-04-03T05:38:16.047Z,17.63
2019-04-03T05:40:48.341Z,17.37
2019-04-03T05:43:20.444Z,21.23
2019-04-03T05:45:53.265Z,17.87
2019-04-03T05:48:24.277Z,19.07
2019-04-03T05:50:58.175Z,19.53
2019-04-03T05:53:28.672Z,17.00
2019-04-03T05:55:59.549Z,15.23
2019-04-03T05:58:30.284Z,17.50
2019-04-03T06:01:05.414Z,16.63
2019-04-03T06:03:42.211Z,14.90
2019-04-03T06:06:07.496Z,16.17
2019-04-03T06:08:38.432Z,20.53
2019-04-03T06:11:09.810Z,15.37
2019-04-03T06:13:40.745Z,25.13
2019-04-03T06:16:11.670Z,18.57
2019-04-03T06:19:39.203Z,20.10
2019-04-03T06:22:17.059Z,13.90
2019-04-03T06:25:13.096Z,14.30
2019-04-03T07:06:18.536Z,11.13
2019-04-03T07:13:30.095Z,13.23
2019-04-03T07:16:28.150Z,13.17
2019-04-03T07:19:03.159Z,15.73
2019-04-03T07:21:58.898Z,13.80
2019-04-03T07:48:01.089Z,14.43
2019-04-03T07:50:31.751Z,11.47
2019-04-03T07:53:02.445Z,9.30
2019-04-03T07:55:33.354Z,10.53
2019-04-03T07:58:04.426Z,12.30
2019-04-03T08:00:38.382Z,11.00
2019-04-03T08:03:14.551Z,12.30
2019-04-03T08:05:45.292Z,16.10
2019-04-03T08:08:18.874Z,11.17
2019-04-03T08:10:50.488Z,10.47
2019-04-03T08:13:21.235Z,13.13
2019-04-03T08:15:53.396Z,12.10
2019-04-03T08:18:28.579Z,11.53
2019-04-03T08:21:01.476Z,13.23
2019-04-03T08:23:34.668Z,12.80
2019-04-03T08:26:06.658Z,12.97
2019-04-03T08:28:37.627Z,10.27
2019-04-03T08:31:10.832Z,9.97
2019-04-03T08:33:40.807Z,9.83
2019-04-03T08:36:23.181Z,8.83
2019-04-03T08:38:45.294Z,9.87
2019-04-03T08:41:16.495Z,10.47
2019-04-03T08:43:47.209Z,8.70
2019-04-03T08:46:17.920Z,7.67
2019-04-03T08:48:48.830Z,8.83
2019-04-03T08:51:19.919Z,8.47
2019-04-03T08:53:53.746Z,7.30
2019-04-03T08:56:24.111Z,6.10
2019-04-03T08:58:56.962Z,6.73
2019-04-03T09:01:28.187Z,5.67
2019-04-03T09:03:59.317Z,7.30
2019-04-03T09:06:30.490Z,8.10
2019-04-03T09:09:02.692Z,6.80
2019-04-03T09:11:36.296Z,6.90
2019-04-03T09:14:11.165Z,8.73
2019-04-03T09:16:43.922Z,10.03
2019-04-03T09:19:18.970Z,11.40
2019-04-03T09:21:56.402Z,11.90
2019-04-03T09:24:38.019Z,12.27
2019-04-03T09:33:24.575Z,11.20
2019-04-03T09:35:54.305Z,10.87
2019-04-03T09:38:25.309Z,13.67
2019-04-03T09:41:05.680Z,10.97
2019-04-03T09:43:40.151Z,11.90
2019-04-03T09:46:11.352Z,12.23
2019-04-03T09:48:42.427Z,9.27
2019-04-03T09:51:13.898Z,10.70
2019-04-03T09:53:45.782Z,10.13
2019-04-03T09:56:17.666Z,11.80
2019-04-03T09:59:08.641Z,8.20
2019-04-03T10:01:39.740Z,9.20
2019-04-03T10:04:10.727Z,10.20
2019-04-03T10:06:41.623Z,8.23
2019-04-03T10:09:12.722Z,8.03
2019-04-03T10:11:45.520Z,9.90
2019-04-03T10:14:16.451Z,9.07
2019-04-03T10:16:47.155Z,11.80
2019-04-03T10:19:20.206Z,10.27
2019-04-03T10:21:53.433Z,7.77
2019-04-03T10:24:24.408Z,9.10
2019-04-03T10:26:56.449Z,6.27
2019-04-03T10:29:30.875Z,6.90
2019-04-03T10:32:01.759Z,6.37
2019-04-03T10:34:36.121Z,6.13
2019-04-03T10:37:07.190Z,6.90
2019-04-03T10:39:40.983Z,6.50
2019-04-03T10:42:11.600Z,4.43
2019-04-03T10:44:42.339Z,3.65
2019-04-03T10:47:13.488Z,3.80
2019-04-03T10:49:45.444Z,4.27
2019-04-03T10:52:16.179Z,4.13
2019-04-03T10:54:47.149Z,5.70
2019-04-03T10:57:17.986Z,4.43
2019-04-03T10:59:53.505Z,4.43
2019-04-03T11:02:23.160Z,3.93
2019-04-03T11:04:54.465Z,3.47
2019-04-03T11:07:27.145Z,4.10
2019-04-03T11:09:58.142Z,5.03
2019-04-03T11:12:31.846Z,3.60
2019-04-03T11:15:03.691Z,6.03
2019-04-03T11:17:35.498Z,4.90
2019-04-03T11:20:09.809Z,4.97
2019-04-03T11:22:43.175Z,3.90
2019-04-03T11:25:20.545Z,4.93
2019-04-03T11:27:51.814Z,3.97
2019-04-03T11:30:24.933Z,7.53
2019-04-03T11:32:56.186Z,4.13
2019-04-03T11:35:28.398Z,7.67
2019-04-03T11:38:11.131Z,6.20
2019-04-03T11:40:33.365Z,4.30
2019-04-03T11:43:04.452Z,5.40
2019-04-03T11:45:37.008Z,3.80
2019-04-03T11:48:23.073Z,4.20
2019-04-03T11:50:58.096Z,2.40
2019-04-03T11:53:35.588Z,2.60
2019-04-03T11:56:06.792Z,2.23
2019-04-03T11:58:38.115Z,1.70
2019-04-03T12:01:09.790Z,1.50
2019-04-03T12:03:46.897Z,1.50
2019-04-03T12:06:28.975Z,1.03
2019-04-03T12:09:02.472Z,1.13
2019-04-03T12:11:47.014Z,0.90
2019-04-03T12:14:24.175Z,1.43
2019-04-03T12:17:01.342Z,1.13
2019-04-03T12:19:36.814Z,1.30
2019-04-03T12:22:10.975Z,1.17
2019-04-03T12:24:49.553Z,1.17
2019-04-03T12:27:20.882Z,0.97
2019-04-03T12:29:54.573Z,1.47
2019-04-03T12:32:36.561Z,1.33
2019-04-03T12:34:58.966Z,1.00
2019-04-03T12:37:30.478Z,1.10
2019-04-03T12:40:02.489Z,0.90
2019-04-03T12:42:43.871Z,1.43
2019-04-03T12:45:18.658Z,1.07
2019-04-03T12:51:39.418Z,1.43
2019-04-03T12:54:12.411Z,2.03
2019-04-03T12:56:42.716Z,1.53
2019-04-03T12:59:13.862Z,1.50
2019-04-03T13:01:48.648Z,2.47
2019-04-03T13:04:18.577Z,1.47
2019-04-03T13:06:49.467Z,2.50
2019-04-03T13:09:20.716Z,2.27
2019-04-03T13:11:51.971Z,1.80
2019-04-03T13:14:26.449Z,2.07
2019-04-03T13:16:55.507Z,1.53
2019-04-03T13:19:26.578Z,1.63
2019-04-03T13:21:57.275Z,1.67
2019-04-03T13:24:28.243Z,2.43
2019-04-03T13:26:59.747Z,2.00
2019-04-03T13:29:30.638Z,1.60
2019-04-03T13:32:01.360Z,1.90
2019-04-03T13:34:32.657Z,1.90
2019-04-03T13:37:04.215Z,1.60
2019-04-03T13:39:35.126Z,1.90
2019-04-03T13:42:06.585Z,1.43
2019-04-03T13:44:37.485Z,1.67
2019-04-03T13:47:09.271Z,1.77
2019-04-03T13:49:41.122Z,1.77
2019-04-03T13:52:12.198Z,5.27
2019-04-03T13:54:45.196Z,2.23
2019-04-03T13:57:16.223Z,1.63
2019-04-03T13:59:47.139Z,1.80
2019-04-03T14:02:18.494Z,1.70
2019-04-03T14:04:49.508Z,2.37
2019-04-03T14:07:20.305Z,2.27
2019-04-03T14:09:55.092Z,2.37
2019-04-03T14:12:27.090Z,3.63
2019-04-03T14:14:57.837Z,1.90
2019-04-03T14:17:28.732Z,2.23
2019-04-03T14:19:59.494Z,2.27
2019-04-03T14:22:32.003Z,2.30
2019-04-03T14:25:03.007Z,2.63
2019-04-03T14:27:34.003Z,2.60
2019-04-03T14:30:05.582Z,4.40
2019-04-03T14:32:36.701Z,2.50
2019-04-03T14:35:39.133Z,3.83
2019-04-03T14:37:45.611Z,3.20
2019-04-03T14:40:16.797Z,2.43
2019-04-03T14:42:47.757Z,2.50
2019-04-03T14:45:19.020Z,2.77
2019-04-03T14:47:49.821Z,3.47
2019-04-03T14:50:20.799Z,3.33
2019-04-03T14:52:51.664Z,4.03
2019-04-03T14:55:23.316Z,2.83
2019-04-03T14:57:55.826Z,5.97
2019-04-03T15:00:30.255Z,3.60
2019-04-03T15:03:04.191Z,4.73
2019-04-03T15:05:35.193Z,4.80
2019-04-03T15:08:06.195Z,4.57
2019-04-03T15:10:37.319Z,4.37
2019-04-03T15:13:09.056Z,5.00
2019-04-03T15:15:59.902Z,4.70
2019-04-03T15:18:31.366Z,4.20
2019-04-03T15:21:02.247Z,3.83
2019-04-03T15:23:35.792Z,4.00
2019-04-03T15:26:05.832Z,4.30
2019-04-03T15:28:38.368Z,4.33
2019-04-03T15:31:09.124Z,3.70
2019-04-03T15:33:40.399Z,3.47
2019-04-03T15:36:14.465Z,3.50
2019-04-03T15:38:46.398Z,4.50
2019-04-03T15:41:17.564Z,3.83
2019-04-03T15:43:50.957Z,4.97
2019-04-03T15:46:24.477Z,3.30
2019-04-03T15:48:55.372Z,4.07
2019-04-03T15:51:27.660Z,3.33
2019-04-03T15:53:59.798Z,3.47
2019-04-03T15:56:31.454Z,3.23
2019-04-03T15:59:02.319Z,3.40
2019-04-03T16:01:33.271Z,4.37
2019-04-03T16:04:35.003Z,3.77
2019-04-03T16:07:08.097Z,3.90
2019-04-03T16:09:39.451Z,4.87
2019-04-03T16:12:11.151Z,4.33
2019-04-03T16:14:42.029Z,4.13
2019-04-03T16:17:13.466Z,4.07
2019-04-03T16:19:44.760Z,3.10
2019-04-03T16:22:17.166Z,3.30
2019-04-03T16:24:47.908Z,3.40
2019-04-03T16:27:18.663Z,2.90
2019-04-03T16:29:49.473Z,3.37
2019-04-03T16:32:20.778Z,4.47
2019-04-03T16:34:51.843Z,2.80
2019-04-03T16:37:23.328Z,4.00
2019-04-03T16:39:54.800Z,2.77
2019-04-03T16:42:25.914Z,4.97
2019-04-03T16:44:58.339Z,4.10
2019-04-03T16:47:29.190Z,2.70
2019-04-03T16:50:00.429Z,2.97
2019-04-03T16:52:31.357Z,2.77
2019-04-03T16:55:02.383Z,2.30
2019-04-03T16:57:33.111Z,2.20
2019-04-03T17:00:07.596Z,2.10
2019-04-03T17:02:37.071Z,3.17
2019-04-03T17:05:11.656Z,1.43
2019-04-03T17:07:41.877Z,1.37
2019-04-03T17:10:13.386Z,2.43
2019-04-03T17:12:46.034Z,1.87
2019-04-03T17:15:17.043Z,1.93
2019-04-03T17:17:50.205Z,2.20
2019-04-03T17:20:22.575Z,2.53
2019-04-03T17:22:53.537Z,3.73
2019-04-03T17:25:26.877Z,2.10
2019-04-03T17:27:59.253Z,2.00
2019-04-03T17:30:29.781Z,3.67
2019-04-03T17:33:02.820Z,1.70
2019-04-03T17:35:34.055Z,2.47
2019-04-03T17:38:05.454Z,1.70
2019-04-03T17:40:37.377Z,2.20
2019-04-03T17:43:08.483Z,2.17
2019-04-03T17:45:39.573Z,2.70
2019-04-03T17:48:10.573Z,2.30
2019-04-03T17:50:41.330Z,2.90
2019-04-03T17:53:12.020Z,2.80
2019-04-03T17:55:45.249Z,2.63
2019-04-03T17:58:16.964Z,2.60
2019-04-03T18:00:51.669Z,2.70
2019-04-03T18:03:20.597Z,3.43
2019-04-03T18:05:51.600Z,3.67
2019-04-03T18:08:24.853Z,2.73
2019-04-03T18:11:03.337Z,3.20
2019-04-03T18:13:34.042Z,2.97
2019-04-03T18:16:04.944Z,4.33
2019-04-03T18:18:35.715Z,4.53
2019-04-03T18:21:06.859Z,3.27
2019-04-03T18:23:37.531Z,3.27
2019-04-03T18:26:08.371Z,4.37
2019-04-03T18:28:39.112Z,4.17
2019-04-03T18:31:09.892Z,3.73
2019-04-03T18:33:40.550Z,4.43
2019-04-03T18:36:11.165Z,4.87
2019-04-03T18:38:41.966Z,6.47
2019-04-03T18:41:12.822Z,4.60
2019-04-03T18:43:43.638Z,3.60
2019-04-03T18:46:14.649Z,4.40
2019-04-03T18:48:53.702Z,3.37
2019-04-03T18:51:20.240Z,6.63
2019-04-03T18:53:50.672Z,3.83
2019-04-03T18:56:21.541Z,3.67
2019-04-03T18:58:53.124Z,4.93
2019-04-03T19:01:25.432Z,3.97
2019-04-03T19:03:56.261Z,3.80
2019-04-03T19:06:27.645Z,3.33
2019-04-03T19:09:09.358Z,3.57
2019-04-03T19:11:30.904Z,3.80
2019-04-03T19:14:01.685Z,4.57
2019-04-03T19:16:43.582Z,3.83
2019-04-03T19:19:08.098Z,5.60
2019-04-03T19:21:39.590Z,6.00
2019-04-03T19:24:10.632Z,6.27
2019-04-03T19:26:41.457Z,6.97
2019-04-03T19:29:15.451Z,5.37
2019-04-03T19:31:48.649Z,5.73
2019-04-03T19:34:21.210Z,5.43
2019-04-03T19:36:53.239Z,8.27
2019-04-03T19:39:48.414Z,5.57
2019-04-03T19:45:12.833Z,7.43
2019-04-03T19:47:47.263Z,6.30
2019-04-03T19:53:04.375Z,6.63
2019-04-03T19:55:37.015Z,7.97
2019-04-03T19:58:11.609Z,6.17
2019-04-03T20:03:59.368Z,7.33
2019-04-03T20:06:30.510Z,7.50
2019-04-03T20:09:01.498Z,7.23
2019-04-03T20:11:34.168Z,6.90
2019-04-03T20:17:43.589Z,6.60
2019-04-03T20:23:18.841Z,6.17
2019-04-03T20:25:51.777Z,6.47
2019-04-03T20:28:24.126Z,6.50
2019-04-03T20:30:58.509Z,6.80
2019-04-03T20:33:32.005Z,6.27
2019-04-03T20:36:03.651Z,5.93
2019-04-03T20:38:40.684Z,6.10
2019-04-03T20:41:13.732Z,5.80
2019-04-03T20:43:47.156Z,7.23
2019-04-03T20:46:19.947Z,6.77
2019-04-03T20:48:50.661Z,6.57
2019-04-03T20:51:32.230Z,7.03
2019-04-03T20:54:05.232Z,7.33
2019-04-03T20:56:36.546Z,7.00
2019-04-03T20:59:11.210Z,6.50
2019-04-03T21:01:44.745Z,6.23
2019-04-03T21:04:16.141Z,6.00
2019-04-03T21:06:57.624Z,6.77
2019-04-03T21:09:33.793Z,6.60
2019-04-03T21:12:40.580Z,7.00
2019-04-03T21:15:14.479Z,6.90
2019-04-03T21:17:49.809Z,8.00
2019-04-03T21:20:25.040Z,7.87
2019-04-03T21:22:56.198Z,8.70
2019-04-03T21:25:27.406Z,8.77
2019-04-03T21:27:59.690Z,7.80
2019-04-03T21:30:30.931Z,8.37
2019-04-03T21:33:01.651Z,9.57
2019-04-03T21:35:33.216Z,9.40
2019-04-03T21:38:05.410Z,9.27
2019-04-03T21:40:37.778Z,9.93
2019-04-03T21:43:08.849Z,10.20
2019-04-03T21:45:40.069Z,11.20
2019-04-03T21:48:13.551Z,11.20
2019-04-03T21:50:47.964Z,10.77
2019-04-03T21:53:19.034Z,11.47
2019-04-03T21:55:50.283Z,12.47
2019-04-03T21:58:21.132Z,12.67
2019-04-03T22:01:24.897Z,13.70
2019-04-03T22:03:59.362Z,14.90
2019-04-03T22:06:30.280Z,13.43
2019-04-03T22:09:01.446Z,13.87
2019-04-03T22:11:34.863Z,14.10
2019-04-03T22:14:06.401Z,15.17
2019-04-03T22:16:37.817Z,14.07
2019-04-03T22:19:09.857Z,15.30
2019-04-03T22:21:40.873Z,16.23
2019-04-03T22:24:12.034Z,15.00
2019-04-03T22:26:43.593Z,14.80
2019-04-03T22:29:15.678Z,15.30
2019-04-03T22:31:49.686Z,16.63
2019-04-03T22:34:21.547Z,15.30
2019-04-03T22:36:52.385Z,17.30
2019-04-03T22:39:24.653Z,16.30
2019-04-03T22:41:55.484Z,17.33
2019-04-03T22:44:30.799Z,16.43
2019-04-03T22:47:02.678Z,15.70
2019-04-03T22:58:03.256Z,16.07
2019-04-03T23:00:36.335Z,17.57
2019-04-03T23:03:07.608Z,17.37
2019-04-03T23:05:38.420Z,18.23
2019-04-03T23:08:09.360Z,17.97
2019-04-03T23:10:46.724Z,20.50
2019-04-03T23:13:23.655Z,18.27
2019-04-03T23:15:54.739Z,19.53
2019-04-03T23:18:25.789Z,17.07
2019-04-03T23:20:56.700Z,20.57
2019-04-03T23:23:27.697Z,18.90
2019-04-03T23:25:59.010Z,18.00
2019-04-03T23:28:33.750Z,18.40
2019-04-03T23:31:04.416Z,21.00
2019-04-03T23:33:35.108Z,17.40
2019-04-03T23:36:05.962Z,21.33
2019-04-03T23:38:36.646Z,19.83
2019-04-03T23:41:07.377Z,19.83
2019-04-03T23:43:40.867Z,19.90
2019-04-03T23:46:12.816Z,20.57
2019-04-03T23:48:48.675Z,19.97
2019-04-03T23:51:23.364Z,20.50
2019-04-03T23:53:52.803Z,22.50
2019-04-03T23:56:23.539Z,21.33
2019-04-03T23:58:54.271Z,20.73
